createdAt,value
2023-02-03T00:01:11.605Z,71.22
2023-02-03T00:03:40.587Z,65.68
2023-02-03T00:06:09.802Z,63.97
2023-02-03T00:08:39.391Z,61.30
2023-02-03T00:11:09.276Z,67.32
2023-02-03T00:13:38.265Z,58.22
2023-02-03T00:16:07.496Z,58.90
2023-02-03T00:18:35.877Z,54.92
2023-02-03T00:21:04.486Z,70.45
2023-02-03T00:23:32.919Z,66.07
2023-02-03T00:26:09.686Z,67.43
2023-02-03T00:28:38.208Z,64.28
2023-02-03T00:31:07.097Z,70.43
2023-02-03T00:33:35.536Z,72.23
2023-02-03T00:36:06.935Z,58.63
2023-02-03T00:38:35.356Z,60.35
2023-02-03T00:41:03.776Z,52.83
2023-02-03T00:43:33.974Z,61.08
2023-02-03T00:46:02.407Z,56.92
2023-02-03T00:48:31.104Z,62.15
2023-02-03T00:50:59.499Z,56.13
2023-02-03T00:53:27.910Z,48.65
2023-02-03T00:55:56.581Z,55.45
2023-02-03T00:58:25.020Z,58.63
2023-02-03T01:00:55.926Z,53.28
2023-02-03T01:03:24.468Z,59.30
2023-02-03T01:05:53.101Z,66.97
2023-02-03T01:08:21.495Z,49.70
2023-02-03T01:10:50.011Z,58.53
2023-02-03T01:13:18.384Z,46.10
2023-02-03T01:15:48.433Z,54.25
2023-02-03T01:18:18.252Z,58.17
2023-02-03T01:20:46.664Z,59.38
2023-02-03T01:23:15.066Z,43.70
2023-02-03T01:25:43.498Z,54.17
2023-02-03T01:28:11.957Z,49.53
2023-02-03T01:30:40.485Z,61.67
2023-02-03T01:33:08.889Z,53.47
2023-02-03T01:35:38.752Z,52.03
2023-02-03T01:38:07.661Z,46.97
2023-02-03T01:40:42.907Z,36.43
2023-02-03T01:43:11.777Z,50.55
2023-02-03T01:45:41.472Z,40.33
2023-02-03T01:50:39.875Z,39.47
2023-02-03T01:53:11.867Z,33.03
2023-02-03T01:55:44.753Z,39.00
2023-02-03T01:58:16.249Z,42.10
2023-02-03T02:00:45.033Z,38.78
2023-02-03T02:03:14.793Z,37.92
2023-02-03T02:08:19.615Z,27.80
2023-02-03T02:10:48.518Z,30.83
2023-02-03T02:13:18.564Z,33.67
2023-02-03T02:15:55.581Z,31.98
2023-02-03T02:18:40.712Z,26.42
2023-02-03T02:21:41.692Z,27.17
2023-02-03T02:24:35.345Z,35.47
2023-02-03T02:27:08.684Z,29.25
2023-02-03T02:30:16.130Z,29.52
2023-02-03T02:33:05.574Z,28.42
2023-02-03T02:35:49.396Z,22.38
2023-02-03T02:38:27.115Z,25.73
2023-02-03T02:41:01.251Z,20.52
2023-02-03T02:43:36.665Z,20.23
2023-02-03T02:46:11.239Z,24.33
2023-02-03T02:48:45.893Z,22.90
2023-02-03T02:51:17.029Z,32.25
2023-02-03T02:53:49.125Z,19.20
2023-02-03T02:56:20.188Z,23.17
2023-02-03T02:58:50.946Z,13.68
2023-02-03T03:01:19.731Z,17.88
2023-02-03T03:03:49.556Z,19.80
2023-02-03T03:13:51.877Z,11.93
2023-02-03T03:16:25.289Z,12.45
2023-02-03T03:18:59.673Z,13.20
2023-02-03T03:21:33.591Z,9.70
2023-02-03T03:24:08.694Z,12.05
2023-02-03T03:26:43.095Z,9.70
2023-02-03T03:29:17.152Z,10.98
2023-02-03T03:31:47.031Z,10.15
2023-02-03T03:34:18.856Z,11.93
2023-02-03T03:36:51.674Z,8.10
2023-02-03T03:39:27.442Z,7.85
2023-02-03T03:42:03.929Z,6.13
2023-02-03T03:44:37.208Z,6.28
2023-02-03T03:47:13.463Z,7.47
2023-02-03T03:49:47.142Z,7.50
2023-02-03T03:52:21.117Z,5.80
2023-02-03T03:54:52.285Z,5.78
2023-02-03T03:57:26.478Z,5.32
2023-02-03T03:59:56.022Z,4.90
2023-02-03T04:02:25.782Z,3.58
2023-02-03T04:07:25.990Z,3.97
2023-02-03T04:12:24.839Z,2.72
2023-02-03T04:14:53.535Z,3.90
2023-02-03T04:17:22.128Z,3.15
2023-02-03T04:19:51.069Z,6.47
2023-02-03T04:22:21.371Z,4.37
2023-02-03T04:24:49.737Z,3.42
2023-02-03T04:27:18.309Z,4.35
2023-02-03T04:29:47.562Z,3.20
2023-02-03T04:32:16.383Z,6.43
2023-02-03T04:34:45.072Z,3.67
2023-02-03T04:37:13.679Z,6.45
2023-02-03T04:39:43.478Z,3.67
2023-02-03T04:44:40.381Z,6.10
2023-02-03T04:47:08.779Z,5.90
2023-02-03T04:49:37.413Z,7.35
2023-02-03T04:52:06.346Z,6.30
2023-02-03T04:54:35.237Z,5.67
2023-02-03T04:57:05.654Z,6.97
2023-02-03T04:59:34.428Z,6.60
2023-02-03T05:02:04.183Z,8.27
2023-02-03T05:07:01.350Z,7.43
2023-02-03T05:09:30.200Z,7.93
2023-02-03T05:11:58.846Z,9.10
2023-02-03T05:14:28.656Z,9.30
2023-02-03T05:19:25.388Z,11.68
2023-02-03T05:21:54.111Z,11.82
2023-02-03T05:24:22.525Z,14.15
2023-02-03T05:26:51.028Z,11.55
2023-02-03T05:29:19.882Z,12.60
2023-02-03T05:31:50.182Z,16.77
2023-02-03T05:34:18.940Z,18.15
2023-02-03T05:36:48.053Z,23.77
2023-02-03T05:39:16.685Z,24.30
2023-02-03T05:41:53.334Z,24.13
2023-02-03T05:44:23.586Z,23.73
2023-02-03T05:46:55.263Z,25.30
2023-02-03T05:49:24.143Z,22.48
2023-02-03T05:51:53.959Z,22.85
2023-02-03T05:56:51.271Z,23.13
2023-02-03T05:59:20.123Z,26.00
2023-02-03T06:01:48.831Z,21.38
2023-02-03T06:04:18.841Z,23.42
2023-02-03T06:06:48.068Z,20.30
2023-02-03T06:09:16.537Z,20.95
2023-02-03T06:11:45.853Z,20.33
2023-02-03T06:14:14.631Z,16.13
2023-02-03T06:16:43.317Z,20.25
2023-02-03T06:19:12.427Z,15.55
2023-02-03T06:24:12.115Z,18.05
2023-02-03T06:26:40.531Z,12.98
2023-02-03T06:29:09.339Z,15.38
2023-02-03T06:31:37.877Z,30.55
2023-02-03T06:34:06.531Z,17.65
2023-02-03T06:36:35.106Z,15.45
2023-02-03T06:39:05.198Z,15.40
2023-02-03T06:41:33.976Z,20.70
2023-02-03T06:44:02.738Z,15.27
2023-02-03T06:46:32.400Z,18.40
2023-02-03T06:49:01.046Z,18.33
2023-02-03T06:51:29.993Z,20.25
2023-02-03T06:54:00.044Z,16.97
2023-02-03T06:56:29.867Z,15.18
2023-02-03T07:01:27.737Z,26.98
2023-02-03T07:03:58.016Z,19.77
2023-02-03T07:06:29.234Z,23.05
2023-02-03T07:08:59.929Z,19.65
2023-02-03T07:11:31.000Z,19.50
2023-02-03T07:13:59.920Z,20.33
2023-02-03T07:16:29.012Z,24.23
2023-02-03T07:18:57.857Z,20.73
2023-02-03T07:21:26.360Z,20.30
2023-02-03T07:23:54.908Z,16.92
2023-02-03T07:26:25.377Z,19.48
2023-02-03T07:28:55.754Z,15.70
2023-02-03T07:31:24.280Z,18.25
2023-02-03T07:33:52.723Z,16.42
2023-02-03T07:36:21.187Z,19.98
2023-02-03T07:38:49.994Z,19.48
2023-02-03T07:41:18.598Z,19.20
2023-02-03T07:43:47.901Z,17.58
2023-02-03T07:46:17.790Z,15.65
2023-02-03T07:48:46.374Z,18.67
2023-02-03T07:51:14.835Z,18.08
2023-02-03T07:53:43.236Z,14.95
2023-02-03T07:56:12.519Z,18.13
2023-02-03T07:58:41.351Z,18.67
2023-02-03T08:01:15.173Z,16.55
2023-02-03T08:03:45.458Z,19.25
2023-02-03T08:06:14.087Z,15.13
2023-02-03T08:08:42.595Z,20.52
2023-02-03T08:11:11.253Z,17.70
2023-02-03T08:13:39.983Z,14.88
2023-02-03T08:16:08.747Z,20.25
2023-02-03T08:18:37.365Z,15.52
2023-02-03T08:21:07.509Z,16.85
2023-02-03T08:23:36.034Z,16.45
2023-02-03T08:26:05.061Z,15.18
2023-02-03T08:28:33.608Z,18.23
2023-02-03T08:31:02.179Z,13.18
2023-02-03T08:33:31.116Z,13.02
2023-02-03T08:36:01.210Z,12.07
2023-02-03T08:38:31.420Z,11.05
2023-02-03T08:41:00.366Z,15.07
2023-02-03T08:43:29.041Z,12.60
2023-02-03T08:45:57.620Z,13.98
2023-02-03T08:48:26.188Z,7.80
2023-02-03T08:50:54.917Z,7.40
2023-02-03T08:53:23.847Z,10.15
2023-02-03T08:55:54.051Z,10.10
2023-02-03T08:58:22.479Z,12.65
2023-02-03T09:00:53.242Z,8.55
2023-02-03T09:03:22.112Z,8.27
2023-02-03T09:05:50.777Z,9.55
2023-02-03T09:08:19.503Z,8.35
2023-02-03T09:10:48.052Z,7.82
2023-02-03T09:13:18.178Z,7.97
2023-02-03T09:15:46.622Z,7.13
2023-02-03T09:18:15.043Z,7.93
2023-02-03T09:20:43.738Z,7.68
2023-02-03T09:23:12.523Z,8.23
2023-02-03T09:25:43.070Z,8.25
2023-02-03T09:28:13.081Z,6.97
2023-02-03T09:30:42.914Z,7.07
2023-02-03T09:35:40.582Z,8.65
2023-02-03T09:38:09.084Z,7.90
2023-02-03T09:40:39.725Z,7.93
2023-02-03T09:43:21.926Z,9.85
2023-02-03T09:45:51.779Z,7.72
2023-02-03T09:48:26.036Z,6.85
2023-02-03T09:50:55.417Z,7.45
2023-02-03T09:53:31.384Z,26.00
2023-02-03T09:56:00.864Z,30.65
2023-02-03T09:58:33.985Z,14.45
2023-02-03T10:01:09.353Z,7.82
2023-02-03T10:03:44.425Z,12.20
2023-02-03T10:06:21.614Z,7.45
2023-02-03T10:09:06.955Z,5.50
2023-02-03T10:11:53.600Z,7.60
2023-02-03T10:14:37.076Z,6.40
2023-02-03T10:17:20.379Z,8.52
2023-02-03T10:19:55.266Z,8.75
2023-02-03T10:22:28.804Z,7.50
2023-02-03T10:25:01.990Z,5.65
2023-02-03T10:27:31.278Z,8.05
2023-02-03T10:30:05.375Z,8.45
2023-02-03T10:32:36.054Z,7.82
2023-02-03T10:35:06.890Z,6.45
2023-02-03T10:37:39.303Z,10.52
2023-02-03T10:40:12.801Z,14.60
2023-02-03T10:42:58.991Z,18.75
2023-02-03T10:45:27.491Z,14.05
2023-02-03T10:47:58.459Z,12.10
2023-02-03T10:50:31.889Z,7.82
2023-02-03T10:53:23.396Z,8.27
2023-02-03T10:56:02.076Z,11.07
2023-02-03T10:58:33.625Z,8.00
2023-02-03T11:01:10.519Z,9.10
2023-02-03T11:03:43.307Z,6.18
2023-02-03T11:06:13.354Z,11.57
2023-02-03T11:08:44.637Z,5.28
2023-02-03T11:11:16.911Z,6.22
2023-02-03T11:13:45.686Z,5.70
2023-02-03T11:16:16.953Z,5.40
2023-02-03T11:18:56.898Z,5.13
2023-02-03T11:26:35.618Z,4.78
2023-02-03T11:29:08.158Z,6.72
2023-02-03T11:31:38.190Z,6.85
2023-02-03T11:34:17.637Z,5.20
2023-02-03T11:36:46.558Z,12.05
2023-02-03T11:39:29.392Z,9.17
2023-02-03T11:41:58.521Z,4.38
2023-02-03T11:44:31.043Z,7.28
2023-02-03T11:47:03.186Z,8.90
2023-02-03T11:50:04.194Z,6.65
2023-02-03T11:52:55.169Z,6.00
2023-02-03T11:55:34.809Z,5.68
2023-02-03T11:58:28.972Z,6.28
2023-02-03T12:01:07.675Z,8.23
2023-02-03T12:04:05.035Z,6.28
2023-02-03T12:07:01.710Z,4.80
2023-02-03T12:09:41.328Z,8.07
2023-02-03T12:12:38.502Z,5.63
2023-02-03T12:15:32.520Z,4.65
2023-02-03T12:18:16.346Z,8.95
2023-02-03T12:21:03.390Z,6.47
2023-02-03T12:23:43.634Z,6.95
2023-02-03T12:26:21.374Z,4.97
2023-02-03T12:28:58.181Z,7.68
2023-02-03T12:31:33.991Z,6.53
2023-02-03T12:34:13.889Z,8.90
2023-02-03T12:39:21.237Z,4.25
2023-02-03T12:41:53.327Z,6.68
2023-02-03T12:44:26.970Z,6.38
2023-02-03T12:47:02.513Z,4.03
2023-02-03T12:49:41.601Z,7.18
2023-02-03T12:52:19.158Z,7.90
2023-02-03T12:54:56.256Z,6.18
2023-02-03T12:57:29.407Z,7.13
2023-02-03T13:00:11.747Z,5.53
2023-02-03T13:02:48.511Z,8.15
2023-02-03T13:05:25.220Z,5.85
2023-02-03T13:08:00.027Z,7.43
2023-02-03T13:10:38.371Z,6.28
2023-02-03T13:13:09.291Z,18.17
2023-02-03T13:15:41.680Z,17.83
2023-02-03T13:18:20.156Z,19.73
2023-02-03T13:20:48.968Z,30.08
2023-02-03T13:23:17.860Z,24.17
2023-02-03T13:26:02.859Z,17.50
2023-02-03T13:28:44.761Z,22.00
2023-02-03T13:31:30.350Z,26.67
2023-02-03T13:34:32.033Z,17.58
2023-02-03T13:37:34.614Z,21.60
2023-02-03T13:40:19.146Z,21.85
2023-02-03T13:42:55.283Z,28.35
2023-02-03T13:45:30.474Z,23.25
2023-02-03T13:48:07.627Z,27.40
2023-02-03T13:50:37.548Z,33.13
2023-02-03T13:53:09.393Z,26.67
2023-02-03T13:55:41.150Z,36.05
2023-02-03T13:58:23.223Z,32.50
2023-02-03T14:01:20.346Z,30.08
2023-02-03T14:03:48.905Z,26.63
2023-02-03T14:06:57.435Z,26.42
2023-02-03T14:09:42.387Z,43.33
2023-02-03T14:12:38.017Z,32.97
2023-02-03T14:15:23.686Z,17.52
2023-02-03T14:18:04.074Z,39.40
2023-02-03T14:20:51.257Z,31.95
2023-02-03T14:23:30.711Z,24.38
2023-02-03T14:26:01.487Z,19.98
2023-02-03T14:28:39.827Z,18.95
2023-02-03T14:31:21.715Z,19.58
2023-02-03T14:34:14.574Z,22.42
2023-02-03T14:36:54.968Z,22.80
2023-02-03T14:40:12.509Z,24.55
2023-02-03T14:43:10.558Z,17.90
2023-02-03T14:46:02.151Z,25.23
2023-02-03T14:48:47.183Z,21.13
2023-02-03T14:51:28.434Z,15.45
2023-02-03T14:54:17.535Z,22.25
2023-02-03T14:57:09.008Z,17.23
2023-02-03T14:59:44.871Z,21.73
2023-02-03T15:02:19.182Z,30.25
2023-02-03T15:04:50.858Z,20.67
2023-02-03T15:07:44.771Z,20.90
2023-02-03T15:10:17.708Z,14.98
2023-02-03T15:12:49.093Z,23.38
2023-02-03T15:15:26.321Z,24.20
2023-02-03T15:17:56.314Z,20.17
2023-02-03T15:20:34.584Z,26.00
2023-02-03T15:23:03.646Z,26.10
2023-02-03T15:25:33.259Z,28.83
2023-02-03T15:28:16.841Z,32.08
2023-02-03T15:30:46.757Z,38.15
2023-02-03T15:35:47.673Z,25.45
2023-02-03T15:38:20.904Z,31.25
2023-02-03T15:40:53.281Z,26.02
2023-02-03T15:43:27.959Z,27.02
2023-02-03T15:46:03.638Z,24.35
2023-02-03T15:48:37.648Z,29.95
2023-02-03T15:51:12.529Z,25.00
2023-02-03T15:53:49.402Z,20.77
2023-02-03T15:56:36.409Z,28.55
2023-02-03T15:59:05.648Z,19.48
2023-02-03T16:01:35.042Z,23.17
2023-02-03T16:04:11.361Z,22.10
2023-02-03T16:06:44.975Z,22.30
2023-02-03T16:09:28.941Z,30.42
2023-02-03T16:12:15.818Z,27.40
2023-02-03T16:14:44.798Z,22.75
2023-02-03T16:17:29.228Z,19.00
2023-02-03T16:20:26.566Z,26.15
2023-02-03T16:23:05.889Z,21.15
2023-02-03T16:25:36.182Z,30.60
2023-02-03T16:28:34.178Z,35.90
2023-02-03T16:31:22.237Z,31.92
2023-02-03T16:34:09.202Z,33.92
2023-02-03T16:36:59.478Z,35.22
2023-02-03T16:39:46.903Z,29.45
2023-02-03T16:42:34.821Z,36.55
2023-02-03T16:45:21.389Z,18.83
2023-02-03T16:48:07.262Z,33.45
2023-02-03T16:50:53.845Z,28.10
2023-02-03T16:53:24.769Z,30.10
2023-02-03T16:55:56.463Z,24.17
2023-02-03T16:58:27.028Z,24.30
2023-02-03T17:01:00.101Z,17.02
2023-02-03T17:03:29.701Z,32.90
2023-02-03T17:05:58.571Z,21.45
2023-02-03T17:08:28.713Z,39.22
2023-02-03T17:11:05.451Z,24.48
2023-02-03T17:13:34.805Z,23.83
2023-02-03T17:16:08.640Z,28.50
2023-02-03T17:18:38.476Z,30.50
2023-02-03T17:23:36.732Z,30.65
2023-02-03T17:26:08.396Z,33.22
2023-02-03T17:28:38.060Z,27.65
2023-02-03T17:31:08.553Z,43.55
2023-02-03T17:33:37.021Z,35.92
2023-02-03T17:36:07.905Z,56.10
2023-02-03T17:53:18.491Z,27.17
2023-02-03T17:58:17.961Z,28.92
2023-02-03T18:00:46.606Z,29.75
2023-02-03T18:03:15.034Z,28.40
2023-02-03T18:05:52.315Z,29.83
2023-02-03T18:08:25.289Z,21.70
2023-02-03T18:10:53.948Z,26.40
2023-02-03T18:13:26.127Z,31.08
2023-02-03T18:15:57.926Z,30.30
2023-02-03T18:18:26.729Z,26.45
2023-02-03T18:20:55.192Z,36.67
2023-02-03T18:23:23.696Z,35.45
2023-02-03T18:25:55.620Z,30.02
2023-02-03T18:28:25.841Z,44.72
2023-02-03T18:31:00.218Z,38.55
2023-02-03T18:33:29.137Z,38.63
2023-02-03T18:35:57.763Z,30.75
2023-02-03T18:38:26.897Z,42.13
2023-02-03T18:40:56.021Z,36.08
2023-02-03T18:43:25.937Z,37.85
2023-02-03T18:45:54.385Z,34.05
2023-02-03T18:48:23.177Z,30.02
2023-02-03T18:50:51.964Z,35.08
2023-02-03T18:53:20.435Z,32.10
2023-02-03T18:55:48.970Z,32.72
2023-02-03T18:58:17.714Z,31.13
2023-02-03T19:00:47.486Z,23.83
2023-02-03T19:05:45.120Z,28.15
2023-02-03T19:08:14.779Z,26.20
2023-02-03T19:10:43.600Z,28.95
2023-02-03T19:13:12.714Z,20.40
2023-02-03T19:15:42.684Z,31.83
2023-02-03T19:18:12.915Z,19.20
2023-02-03T19:20:43.527Z,31.10
2023-02-03T19:23:13.610Z,27.27
2023-02-03T19:25:42.535Z,23.42
2023-02-03T19:28:17.758Z,24.23
2023-02-03T19:30:57.403Z,29.95
2023-02-03T19:33:29.945Z,26.90
2023-02-03T19:35:58.719Z,31.63
2023-02-03T19:38:27.175Z,25.27
2023-02-03T19:40:56.173Z,30.33
2023-02-03T19:43:25.463Z,22.67
2023-02-03T19:45:54.554Z,27.17
2023-02-03T19:48:23.091Z,34.13
2023-02-03T19:50:53.263Z,24.45
2023-02-03T19:53:24.294Z,19.98
2023-02-03T19:55:53.481Z,24.20
2023-02-03T19:58:23.780Z,17.38
2023-02-03T20:00:52.311Z,30.30
2023-02-03T20:03:22.713Z,25.92
2023-02-03T20:05:53.992Z,28.33
2023-02-03T20:08:22.516Z,29.15
2023-02-03T20:10:52.421Z,39.17
2023-02-03T20:13:21.463Z,30.27
2023-02-03T20:15:50.527Z,38.00
2023-02-03T20:18:18.971Z,29.90
2023-02-03T20:20:52.891Z,29.23
2023-02-03T20:23:21.801Z,28.05
2023-02-03T20:25:51.199Z,30.50
2023-02-03T20:28:19.990Z,39.95
2023-02-03T20:30:51.325Z,47.97
2023-02-03T20:33:20.526Z,31.15
2023-02-03T20:35:49.603Z,39.03
2023-02-03T20:38:20.052Z,39.42
2023-02-03T20:40:48.769Z,43.97
2023-02-03T20:43:19.833Z,31.05
2023-02-03T20:45:50.245Z,29.63
2023-02-03T20:48:22.304Z,43.92
2023-02-03T20:50:51.062Z,40.78
2023-02-03T20:53:23.167Z,41.47
2023-02-03T20:55:52.771Z,26.30
2023-02-03T20:58:25.654Z,35.08
2023-02-03T21:00:57.419Z,18.73
2023-02-03T21:03:44.504Z,25.75
2023-02-03T21:06:15.230Z,26.95
2023-02-03T21:08:45.883Z,31.42
2023-02-03T21:11:16.906Z,21.77
2023-02-03T21:13:46.418Z,24.42
2023-02-03T21:16:18.734Z,20.80
2023-02-03T21:18:50.583Z,22.20
2023-02-03T21:21:24.898Z,26.45
2023-02-03T21:23:55.785Z,18.33
2023-02-03T21:26:26.135Z,29.17
2023-02-03T21:28:56.499Z,26.65
2023-02-03T21:31:28.093Z,26.05
2023-02-03T21:33:57.830Z,11.30
2023-02-03T21:36:28.408Z,18.75
2023-02-03T21:39:00.657Z,18.35
2023-02-03T21:41:33.752Z,25.45
2023-02-03T21:44:02.574Z,18.60
2023-02-03T21:46:35.674Z,21.85
2023-02-03T21:49:05.071Z,21.55
2023-02-03T21:51:36.497Z,16.38
2023-02-03T21:54:30.321Z,12.38
2023-02-03T21:57:00.105Z,19.88
2023-02-03T22:01:58.888Z,16.02
2023-02-03T22:04:30.352Z,18.65
2023-02-03T22:06:58.926Z,17.05
2023-02-03T22:09:28.813Z,18.23
2023-02-03T22:11:57.367Z,15.48
2023-02-03T22:14:25.861Z,12.60
2023-02-03T22:16:54.337Z,18.75
2023-02-03T22:19:22.813Z,14.18
2023-02-03T22:21:52.482Z,12.80
2023-02-03T22:24:21.128Z,13.88
2023-02-03T22:26:50.964Z,14.48
2023-02-03T22:31:48.052Z,13.60
2023-02-03T22:34:17.277Z,11.00
2023-02-03T22:36:45.865Z,12.52
2023-02-03T22:39:14.370Z,10.15
2023-02-03T22:41:45.579Z,12.38
2023-02-03T22:44:16.232Z,15.57
2023-02-03T22:46:44.768Z,8.82
2023-02-03T22:49:13.198Z,10.93
2023-02-03T22:51:42.291Z,15.05
2023-02-03T22:54:10.956Z,6.15
2023-02-03T22:56:39.748Z,10.38
2023-02-03T22:59:08.600Z,10.52
2023-02-03T23:01:38.805Z,7.57
2023-02-03T23:04:07.468Z,12.70
2023-02-03T23:06:36.223Z,5.28
2023-02-03T23:09:04.986Z,10.02
2023-02-03T23:11:33.584Z,7.00
2023-02-03T23:14:02.862Z,5.15
2023-02-03T23:16:31.262Z,8.75
2023-02-03T23:19:01.550Z,8.20
2023-02-03T23:21:30.164Z,6.90
2023-02-03T23:23:58.979Z,5.03
2023-02-03T23:26:27.704Z,3.70
2023-02-03T23:28:56.219Z,7.05
2023-02-03T23:31:24.872Z,4.00
2023-02-03T23:34:07.232Z,4.57
2023-02-03T23:36:37.117Z,3.78
2023-02-03T23:39:06.405Z,4.63
2023-02-03T23:41:35.458Z,6.85
2023-02-03T23:44:04.126Z,2.10
2023-02-03T23:46:33.148Z,3.72
2023-02-03T23:49:01.720Z,3.20
2023-02-03T23:51:30.214Z,4.00
2023-02-03T23:54:00.424Z,3.53
2023-02-03T23:56:28.804Z,0.50
2023-02-03T23:58:57.308Z,3.00
